createdAt,value
2018-07-02T00:02:21.291Z,0.40
2018-07-02T00:04:49.457Z,0.40
2018-07-02T00:07:20.055Z,0.47
2018-07-02T00:09:48.684Z,0.40
2018-07-02T00:12:17.995Z,0.43
2018-07-02T00:14:47.318Z,0.40
2018-07-02T00:17:15.596Z,0.50
2018-07-02T00:19:43.505Z,0.50
2018-07-02T00:22:12.210Z,0.50
2018-07-02T00:24:40.478Z,0.50
2018-07-02T00:27:08.773Z,0.40
2018-07-02T00:29:36.962Z,0.50
2018-07-02T00:32:05.126Z,0.47
2018-07-02T00:34:33.452Z,0.50
2018-07-02T00:37:01.712Z,0.40
2018-07-02T00:39:29.875Z,0.50
2018-07-02T00:41:58.082Z,0.50
2018-07-02T00:44:26.239Z,0.40
2018-07-02T00:46:54.561Z,0.50
2018-07-02T00:49:22.724Z,0.40
2018-07-02T00:51:50.866Z,0.47
2018-07-02T00:54:19.192Z,0.40
2018-07-02T00:56:47.422Z,0.40
2018-07-02T00:59:15.612Z,0.40
2018-07-02T01:01:43.762Z,0.50
2018-07-02T01:04:11.947Z,0.50
2018-07-02T01:06:40.098Z,0.40
2018-07-02T01:09:09.777Z,0.50
2018-07-02T01:11:37.991Z,0.40
2018-07-02T01:14:06.483Z,0.50
2018-07-02T01:16:34.647Z,0.40
2018-07-02T01:19:02.825Z,0.50
2018-07-02T01:21:31.386Z,0.40
2018-07-02T01:23:59.566Z,0.47
2018-07-02T01:26:27.951Z,0.40
2018-07-02T01:28:56.170Z,0.40
2018-07-02T01:31:24.331Z,0.40
2018-07-02T01:33:52.469Z,0.50
2018-07-02T01:36:20.633Z,0.50
2018-07-02T01:38:48.903Z,0.50
2018-07-02T01:41:17.058Z,0.50
2018-07-02T01:43:51.878Z,0.50
2018-07-02T01:46:20.102Z,0.50
2018-07-02T01:48:48.254Z,0.50
2018-07-02T01:51:17.142Z,0.50
2018-07-02T01:53:45.310Z,0.50
2018-07-02T01:56:13.483Z,0.50
2018-07-02T01:58:41.582Z,0.50
2018-07-02T02:01:09.878Z,0.40
2018-07-02T02:03:37.983Z,0.50
2018-07-02T02:06:06.136Z,0.50
2018-07-02T02:08:34.250Z,0.50
2018-07-02T02:11:02.401Z,0.50
2018-07-02T02:13:31.447Z,0.50
2018-07-02T02:15:59.564Z,0.50
2018-07-02T02:18:27.675Z,0.50
2018-07-02T02:20:55.818Z,0.50
2018-07-02T02:23:24.003Z,0.50
2018-07-02T02:25:52.478Z,0.50
2018-07-02T02:28:20.597Z,0.50
2018-07-02T02:30:48.791Z,0.50
2018-07-02T02:33:16.910Z,0.50
2018-07-02T02:35:45.052Z,0.50
2018-07-02T02:38:13.527Z,0.40
2018-07-02T02:40:41.618Z,0.50
2018-07-02T02:43:09.914Z,0.50
2018-07-02T02:45:38.084Z,0.50
2018-07-02T02:48:06.210Z,0.50
2018-07-02T02:50:34.342Z,0.50
2018-07-02T02:53:02.451Z,0.50
2018-07-02T02:55:31.510Z,0.50
2018-07-02T02:57:59.645Z,0.50
2018-07-02T03:00:28.559Z,0.50
2018-07-02T03:02:56.658Z,0.50
2018-07-02T03:05:24.782Z,0.50
2018-07-02T03:07:52.917Z,0.50
2018-07-02T03:10:21.088Z,0.50
2018-07-02T03:12:49.306Z,0.50
2018-07-02T03:15:17.447Z,0.50
2018-07-02T03:17:45.569Z,0.50
2018-07-02T03:20:13.696Z,0.50
2018-07-02T03:22:41.803Z,0.50
2018-07-02T03:25:09.955Z,0.50
2018-07-02T03:27:39.123Z,0.50
2018-07-02T03:30:07.259Z,0.50
2018-07-02T03:32:35.359Z,0.50
2018-07-02T03:35:03.503Z,0.50
2018-07-02T03:37:31.750Z,0.50
2018-07-02T03:39:59.874Z,0.50
2018-07-02T03:42:28.004Z,0.50
2018-07-02T03:44:56.114Z,0.50
2018-07-02T03:47:24.239Z,0.50
2018-07-02T03:49:52.358Z,0.50
2018-07-02T03:52:21.274Z,0.50
2018-07-02T03:54:49.529Z,0.50
2018-07-02T03:57:18.004Z,0.50
2018-07-02T03:59:46.143Z,0.50
2018-07-02T04:02:14.516Z,0.50
2018-07-02T04:04:42.462Z,0.50
2018-07-02T04:07:10.700Z,0.50
2018-07-02T04:09:38.904Z,0.50
2018-07-02T04:12:07.119Z,0.50
2018-07-02T04:14:35.227Z,0.50
2018-07-02T04:17:03.366Z,0.50
2018-07-02T04:19:31.743Z,0.50
2018-07-02T04:21:59.922Z,0.50
2018-07-02T04:24:27.915Z,0.50
2018-07-02T04:26:56.078Z,0.50
2018-07-02T04:29:24.241Z,0.50
2018-07-02T04:31:52.424Z,0.50
2018-07-02T04:34:20.778Z,0.50
2018-07-02T04:36:49.076Z,0.50
2018-07-02T04:39:17.226Z,0.50
2018-07-02T04:41:45.383Z,0.50
2018-07-02T04:44:13.555Z,0.83
2018-07-02T04:46:41.716Z,0.50
2018-07-02T04:49:10.041Z,0.50
2018-07-02T04:51:38.227Z,0.50
2018-07-02T04:54:06.362Z,0.50
2018-07-02T04:56:34.530Z,0.50
2018-07-02T04:59:03.316Z,0.50
2018-07-02T05:01:31.807Z,0.50
2018-07-02T05:03:59.946Z,0.50
2018-07-02T05:06:28.158Z,0.50
2018-07-02T05:08:56.327Z,0.50
2018-07-02T05:11:24.529Z,0.50
2018-07-02T05:13:52.899Z,0.50
2018-07-02T05:16:21.067Z,0.40
2018-07-02T05:18:49.216Z,0.50
2018-07-02T05:21:17.651Z,0.50
2018-07-02T05:23:45.819Z,0.50
2018-07-02T05:26:13.970Z,0.50
2018-07-02T05:28:42.130Z,0.50
2018-07-02T05:31:10.349Z,0.50
2018-07-02T05:33:39.303Z,0.43
2018-07-02T05:36:07.470Z,0.50
2018-07-02T05:38:35.630Z,0.50
2018-07-02T05:41:03.825Z,0.50
2018-07-02T05:43:31.946Z,0.50
2018-07-02T05:46:00.098Z,0.50
2018-07-02T05:48:28.250Z,0.47
2018-07-02T05:50:56.468Z,0.50
2018-07-02T05:53:24.623Z,0.40
2018-07-02T05:55:52.798Z,0.50
2018-07-02T05:58:20.934Z,0.50
2018-07-02T06:00:55.814Z,0.50
2018-07-02T06:03:23.971Z,0.50
2018-07-02T06:05:52.186Z,0.43
2018-07-02T06:08:20.365Z,0.50
2018-07-02T06:10:48.600Z,0.50
2018-07-02T06:13:16.774Z,0.50
2018-07-02T06:15:44.901Z,0.50
2018-07-02T06:18:13.047Z,0.50
2018-07-02T06:20:41.211Z,0.43
2018-07-02T06:23:09.402Z,0.40
2018-07-02T06:25:37.636Z,0.50
2018-07-02T06:28:05.808Z,0.50
2018-07-02T06:30:34.367Z,0.40
2018-07-02T06:33:03.442Z,0.50
2018-07-02T06:35:33.353Z,0.50
2018-07-02T06:38:01.587Z,0.50
2018-07-02T06:40:30.565Z,0.50
2018-07-02T06:42:59.257Z,0.50
2018-07-02T06:45:27.443Z,0.40
2018-07-02T06:47:55.587Z,0.40
2018-07-02T06:50:23.725Z,0.40
2018-07-02T06:52:52.012Z,0.40
2018-07-02T06:55:20.159Z,0.40
2018-07-02T06:57:48.307Z,0.50
2018-07-02T07:00:16.487Z,0.40
2018-07-02T07:02:44.630Z,0.42
2018-07-02T07:05:12.775Z,0.40
2018-07-02T07:07:40.936Z,0.30
2018-07-02T07:10:09.069Z,0.40
2018-07-02T07:12:37.214Z,0.40
2018-07-02T07:15:06.445Z,0.40
2018-07-02T07:17:35.023Z,0.40
2018-07-02T07:20:03.875Z,0.40
2018-07-02T07:22:32.242Z,0.40
2018-07-02T07:25:00.747Z,0.40
2018-07-02T07:27:41.540Z,0.40
2018-07-02T07:30:12.160Z,0.40
2018-07-02T07:32:40.509Z,0.40
2018-07-02T07:35:11.941Z,0.30
2018-07-02T07:37:40.201Z,0.40
2018-07-02T07:40:09.183Z,0.40
2018-07-02T07:42:43.964Z,0.37
2018-07-02T07:45:12.251Z,0.40
2018-07-02T07:47:40.372Z,0.40
2018-07-02T07:50:08.502Z,0.37
2018-07-02T07:52:36.659Z,0.33
2018-07-02T07:55:05.687Z,0.37
2018-07-02T07:57:33.829Z,0.30
2018-07-02T08:00:01.927Z,0.40
2018-07-02T08:02:30.506Z,0.30
2018-07-02T08:04:58.634Z,0.40
2018-07-02T08:07:26.718Z,0.40
2018-07-02T08:09:54.825Z,0.40
2018-07-02T08:12:22.970Z,0.40
2018-07-02T08:14:51.219Z,0.40
2018-07-02T08:17:19.319Z,0.40
2018-07-02T08:19:47.436Z,0.40
2018-07-02T08:22:15.735Z,0.40
2018-07-02T08:24:43.871Z,0.37
2018-07-02T08:27:12.087Z,0.40
2018-07-02T08:29:40.210Z,0.30
2018-07-02T08:32:08.966Z,0.33
2018-07-02T08:34:38.074Z,0.40
2018-07-02T08:37:06.227Z,0.40
2018-07-02T08:39:34.339Z,0.40
2018-07-02T08:42:02.455Z,0.30
2018-07-02T08:44:30.670Z,0.40
2018-07-02T08:46:58.766Z,0.30
2018-07-02T08:49:26.880Z,0.30
2018-07-02T08:51:55.009Z,0.30
2018-07-02T08:54:23.256Z,0.40
2018-07-02T08:56:51.643Z,0.40
2018-07-02T08:59:19.743Z,0.30
2018-07-02T09:01:47.839Z,0.40
2018-07-02T09:04:16.870Z,0.30
2018-07-02T09:06:46.060Z,0.30
2018-07-02T09:09:14.463Z,0.30
2018-07-02T09:11:42.641Z,0.40
2018-07-02T09:14:11.107Z,0.40
2018-07-02T09:16:39.239Z,0.37
2018-07-02T09:19:07.338Z,0.40
2018-07-02T09:21:35.476Z,0.30
2018-07-02T09:24:03.576Z,0.57
2018-07-02T09:26:32.581Z,0.30
2018-07-02T09:29:00.725Z,0.30
2018-07-02T09:31:29.032Z,0.30
2018-07-02T09:33:57.124Z,0.30
2018-07-02T09:36:25.217Z,0.30
2018-07-02T09:38:53.555Z,0.30
2018-07-02T09:41:21.690Z,0.30
2018-07-02T09:43:49.822Z,0.33
2018-07-02T09:46:17.938Z,0.30
2018-07-02T09:48:46.121Z,0.30
2018-07-02T09:51:14.219Z,0.40
2018-07-02T09:53:42.356Z,0.30
2018-07-02T09:56:10.487Z,0.30
2018-07-02T09:58:38.657Z,0.33
2018-07-02T10:01:07.295Z,0.30
2018-07-02T10:03:35.503Z,0.40
2018-07-02T10:06:05.037Z,0.40
2018-07-02T10:08:34.167Z,0.30
2018-07-02T10:11:02.311Z,0.37
2018-07-02T10:13:30.462Z,0.30
2018-07-02T10:15:58.682Z,0.40
2018-07-02T10:18:26.826Z,0.30
2018-07-02T10:20:54.963Z,0.30
2018-07-02T10:23:23.111Z,0.30
2018-07-02T10:25:51.299Z,0.30
2018-07-02T10:28:19.187Z,0.30
2018-07-02T10:30:47.441Z,0.30
2018-07-02T10:33:16.460Z,0.30
2018-07-02T10:35:50.195Z,0.40
2018-07-02T10:38:18.254Z,0.40
2018-07-02T10:40:51.040Z,0.33
2018-07-02T10:43:19.303Z,0.30
2018-07-02T10:45:47.521Z,0.30
2018-07-02T10:48:15.724Z,0.40
2018-07-02T10:50:43.962Z,0.30
2018-07-02T10:53:12.104Z,0.40
2018-07-02T10:55:40.815Z,0.40
2018-07-02T10:58:09.162Z,0.30
2018-07-02T11:00:37.349Z,0.37
2018-07-02T11:03:05.507Z,0.40
2018-07-02T11:05:33.643Z,0.40
2018-07-02T11:08:01.891Z,0.40
2018-07-02T11:10:30.019Z,0.40
2018-07-02T11:13:00.168Z,0.37
2018-07-02T11:15:28.315Z,0.30
2018-07-02T11:17:56.455Z,0.40
2018-07-02T11:20:24.584Z,0.37
2018-07-02T11:22:52.716Z,0.40
2018-07-02T11:25:20.891Z,0.40
2018-07-02T11:27:49.067Z,0.30
2018-07-02T11:30:17.240Z,0.30
2018-07-02T11:32:45.374Z,0.40
2018-07-02T11:35:13.552Z,0.40
2018-07-02T11:37:41.671Z,0.40
2018-07-02T11:40:09.842Z,0.30
2018-07-02T11:42:38.074Z,0.40
2018-07-02T11:45:06.867Z,0.40
2018-07-02T11:47:35.214Z,0.40
2018-07-02T11:50:03.400Z,0.37
2018-07-02T11:52:32.230Z,0.40
2018-07-02T11:55:00.494Z,0.40
2018-07-02T11:57:29.510Z,0.40
2018-07-02T11:59:57.638Z,0.40
2018-07-02T12:02:25.820Z,0.40
2018-07-02T12:04:53.727Z,0.40
2018-07-02T12:07:21.862Z,0.40
2018-07-02T12:09:50.029Z,0.40
2018-07-02T12:12:18.590Z,0.40
2018-07-02T12:14:46.751Z,0.40
2018-07-02T12:17:14.911Z,0.40
2018-07-02T12:19:43.055Z,0.40
2018-07-02T12:22:11.203Z,0.40
2018-07-02T12:24:39.484Z,0.40
2018-07-02T12:27:07.630Z,0.40
2018-07-02T12:29:35.762Z,0.40
2018-07-02T12:32:03.915Z,0.40
2018-07-02T12:34:38.877Z,0.40
2018-07-02T12:37:07.954Z,0.33
2018-07-02T12:39:37.183Z,0.40
2018-07-02T12:42:06.252Z,0.40
2018-07-02T12:44:34.395Z,0.40
2018-07-02T12:47:02.590Z,0.40
2018-07-02T12:49:30.704Z,0.40
2018-07-02T12:51:58.920Z,0.40
2018-07-02T12:54:27.211Z,0.33
2018-07-02T12:56:57.887Z,0.40
2018-07-02T12:59:26.555Z,0.40
2018-07-02T13:01:54.686Z,0.40
2018-07-02T13:04:22.993Z,0.40
2018-07-02T13:06:51.054Z,0.33
2018-07-02T13:09:19.221Z,0.33
2018-07-02T13:11:47.355Z,0.40
2018-07-02T13:14:15.459Z,0.40
2018-07-02T13:16:43.590Z,0.40
2018-07-02T13:19:11.718Z,0.30
2018-07-02T13:21:39.949Z,0.40
2018-07-02T13:24:08.116Z,0.40
2018-07-02T13:26:36.241Z,0.40
2018-07-02T13:29:04.345Z,0.30
2018-07-02T13:31:32.829Z,0.30
2018-07-02T13:34:01.178Z,0.40
2018-07-02T13:36:29.278Z,0.40
2018-07-02T13:38:57.539Z,0.40
2018-07-02T13:41:25.653Z,0.30
2018-07-02T13:43:53.771Z,0.40
2018-07-02T13:46:21.870Z,0.40
2018-07-02T13:48:49.962Z,0.40
2018-07-02T13:51:18.224Z,0.33
2018-07-02T13:53:46.169Z,0.30
2018-07-02T13:56:14.322Z,0.40
2018-07-02T13:58:42.454Z,0.30
2018-07-02T14:01:11.106Z,0.40
2018-07-02T14:03:39.270Z,0.40
2018-07-02T14:06:07.393Z,0.30
2018-07-02T14:08:35.620Z,0.40
2018-07-02T14:11:03.803Z,0.30
2018-07-02T14:13:32.843Z,0.40
2018-07-02T14:16:01.062Z,0.30
2018-07-02T14:18:29.230Z,0.40
2018-07-02T14:20:57.984Z,0.40
2018-07-02T14:23:26.210Z,0.40
2018-07-02T14:25:54.374Z,0.40
2018-07-02T14:28:22.510Z,0.40
2018-07-02T14:30:50.683Z,0.40
2018-07-02T14:33:18.809Z,0.40
2018-07-02T14:35:47.743Z,0.40
2018-07-02T14:38:15.903Z,0.40
2018-07-02T14:40:44.035Z,0.40
2018-07-02T14:43:12.183Z,0.40
2018-07-02T14:45:40.367Z,0.30
2018-07-02T14:48:08.508Z,0.40
2018-07-02T14:50:36.662Z,0.40
2018-07-02T14:53:04.871Z,0.40
2018-07-02T14:55:33.029Z,0.40
2018-07-02T14:58:01.218Z,0.40
2018-07-02T15:00:29.376Z,0.40
2018-07-02T15:02:57.515Z,0.40
2018-07-02T15:05:26.228Z,0.40
2018-07-02T15:07:55.165Z,0.40
2018-07-02T15:10:23.318Z,0.40
2018-07-02T15:12:51.481Z,0.40
2018-07-02T15:15:20.087Z,0.40
2018-07-02T15:17:48.251Z,0.40
2018-07-02T15:20:16.397Z,0.40
2018-07-02T15:22:44.531Z,0.40
2018-07-02T15:25:12.670Z,0.40
2018-07-02T15:27:40.878Z,0.40
2018-07-02T15:30:09.015Z,0.40
2018-07-02T15:32:37.170Z,0.40
2018-07-02T15:35:05.460Z,0.40
2018-07-02T15:37:33.578Z,0.40
2018-07-02T15:40:01.729Z,0.40
2018-07-02T15:42:29.857Z,0.40
2018-07-02T15:44:58.035Z,0.40
2018-07-02T15:47:26.156Z,0.40
2018-07-02T15:49:54.295Z,0.40
2018-07-02T15:52:22.478Z,0.40
2018-07-02T15:54:50.603Z,0.40
2018-07-02T15:57:19.354Z,0.40
2018-07-02T15:59:47.465Z,0.40
2018-07-02T16:02:15.582Z,0.40
2018-07-02T16:04:43.668Z,0.40
2018-07-02T16:07:11.955Z,0.40
2018-07-02T16:09:40.086Z,0.40
2018-07-02T16:12:08.220Z,0.40
2018-07-02T16:14:36.374Z,0.40
2018-07-02T16:17:04.482Z,0.40
2018-07-02T16:19:33.202Z,0.40
2018-07-02T16:22:01.346Z,0.40
2018-07-02T16:24:29.499Z,0.40
2018-07-02T16:26:57.638Z,0.40
2018-07-02T16:29:25.840Z,0.40
2018-07-02T16:31:53.935Z,0.40
2018-07-02T16:34:22.118Z,0.40
2018-07-02T16:36:50.283Z,0.40
2018-07-02T16:39:18.989Z,0.40
2018-07-02T16:41:47.091Z,0.40
2018-07-02T16:44:15.170Z,0.40
2018-07-02T16:46:43.275Z,0.40
2018-07-02T16:49:11.362Z,0.40
2018-07-02T16:51:39.512Z,0.40
2018-07-02T16:54:07.660Z,0.40
2018-07-02T16:56:36.111Z,0.40
2018-07-02T16:59:04.409Z,0.40
2018-07-02T17:01:33.146Z,0.40
2018-07-02T17:04:01.349Z,0.40
2018-07-02T17:06:29.479Z,0.40
2018-07-02T17:08:57.663Z,0.40
2018-07-02T17:11:25.808Z,0.40
2018-07-02T17:13:54.136Z,0.40
2018-07-02T17:16:22.361Z,0.40
2018-07-02T17:18:50.591Z,0.40
2018-07-02T17:21:18.763Z,0.40
2018-07-02T17:23:46.910Z,0.40
2018-07-02T17:26:15.073Z,0.40
2018-07-02T17:28:43.333Z,0.40
2018-07-02T17:31:11.467Z,0.40
2018-07-02T17:33:39.611Z,0.40
2018-07-02T17:36:07.759Z,0.40
2018-07-02T17:38:35.884Z,0.40
2018-07-02T17:41:04.015Z,0.40
2018-07-02T17:43:32.199Z,0.40
2018-07-02T17:46:00.316Z,0.40
2018-07-02T17:48:28.471Z,0.40
2018-07-02T17:50:56.614Z,0.40
2018-07-02T17:53:25.335Z,0.40
2018-07-02T17:55:53.435Z,0.40
2018-07-02T17:58:21.626Z,0.40
2018-07-02T18:00:49.723Z,0.40
2018-07-02T18:03:17.844Z,0.40
2018-07-02T18:05:45.929Z,0.40
2018-07-02T18:08:14.028Z,0.40
2018-07-02T18:10:42.198Z,0.40
2018-07-02T18:13:10.322Z,0.40
2018-07-02T18:15:38.437Z,0.40
2018-07-02T18:18:06.541Z,0.40
2018-07-02T18:20:35.228Z,0.40
2018-07-02T18:23:03.396Z,0.40
2018-07-02T18:25:31.594Z,0.40
2018-07-02T18:27:59.683Z,0.40
2018-07-02T18:30:27.766Z,0.40
2018-07-02T18:32:55.830Z,0.40
2018-07-02T18:35:23.974Z,0.40
2018-07-02T18:37:52.086Z,0.40
2018-07-02T18:40:20.199Z,0.40
2018-07-02T18:42:48.387Z,0.40
2018-07-02T18:45:16.539Z,0.40
2018-07-02T18:47:44.619Z,0.40
2018-07-02T18:50:12.691Z,0.40
2018-07-02T18:52:40.775Z,0.40
2018-07-02T18:55:08.855Z,0.40
2018-07-02T18:57:37.000Z,0.40
2018-07-02T19:00:05.802Z,0.40
2018-07-02T19:02:33.942Z,0.40
2018-07-02T19:05:01.891Z,0.40
2018-07-02T19:07:30.047Z,0.40
2018-07-02T19:09:58.240Z,0.40
2018-07-02T19:12:26.433Z,0.40
2018-07-02T19:14:54.556Z,0.40
2018-07-02T19:17:22.662Z,0.40
2018-07-02T19:19:50.926Z,0.40
2018-07-02T19:22:19.170Z,0.40
2018-07-02T19:24:47.336Z,0.40
2018-07-02T19:27:15.471Z,0.40
2018-07-02T19:29:43.648Z,0.40
2018-07-02T19:32:11.840Z,0.40
2018-07-02T19:34:39.940Z,0.40
2018-07-02T19:37:08.019Z,0.40
2018-07-02T19:39:36.134Z,0.40
2018-07-02T19:42:04.315Z,0.40
2018-07-02T19:44:33.178Z,0.40
2018-07-02T19:47:01.347Z,0.40
2018-07-02T19:49:29.443Z,0.40
2018-07-02T19:51:57.518Z,0.40
2018-07-02T19:54:25.732Z,0.40
2018-07-02T19:56:53.916Z,0.40
2018-07-02T19:59:22.007Z,0.40
2018-07-02T20:01:50.087Z,0.40
2018-07-02T20:04:18.416Z,0.40
2018-07-02T20:06:46.338Z,0.40
2018-07-02T20:09:14.467Z,0.40
2018-07-02T20:11:42.573Z,0.40
2018-07-02T20:14:10.791Z,0.40
2018-07-02T20:16:38.949Z,0.40
2018-07-02T20:19:07.142Z,0.40
2018-07-02T20:21:35.279Z,0.40
2018-07-02T20:24:03.467Z,0.40
2018-07-02T20:26:31.570Z,0.40
2018-07-02T20:28:59.680Z,0.40
2018-07-02T20:31:27.792Z,0.40
2018-07-02T20:33:55.883Z,0.40
2018-07-02T20:36:24.057Z,0.40
2018-07-02T20:38:52.141Z,0.40
2018-07-02T20:41:20.049Z,0.40
2018-07-02T20:43:48.173Z,0.40
2018-07-02T20:46:16.254Z,0.40
2018-07-02T20:48:44.516Z,0.40
2018-07-02T20:51:12.623Z,0.40
2018-07-02T20:53:40.838Z,0.40
2018-07-02T20:56:09.573Z,0.40
2018-07-02T20:58:37.752Z,0.40
2018-07-02T21:01:05.856Z,0.40
2018-07-02T21:03:33.976Z,0.40
2018-07-02T21:06:02.086Z,0.40
2018-07-02T21:08:30.190Z,0.40
2018-07-02T21:10:58.312Z,0.40
2018-07-02T21:13:27.015Z,0.40
2018-07-02T21:15:55.733Z,0.40
2018-07-02T21:18:24.502Z,0.40
2018-07-02T21:20:53.081Z,0.40
2018-07-02T21:23:21.414Z,0.40
2018-07-02T21:25:50.032Z,0.40
2018-07-02T21:28:18.742Z,0.40
2018-07-02T21:30:47.251Z,0.40
2018-07-02T21:33:15.757Z,0.40
2018-07-02T21:35:44.189Z,0.40
2018-07-02T21:38:12.745Z,0.40
2018-07-02T21:40:41.240Z,0.40
2018-07-02T21:43:09.928Z,0.40
2018-07-02T21:45:38.535Z,0.40
2018-07-02T21:48:06.842Z,0.40
2018-07-02T21:50:35.416Z,0.40
2018-07-02T21:53:03.701Z,0.40
2018-07-02T21:55:31.812Z,0.40
2018-07-02T21:57:59.944Z,0.40
2018-07-02T22:00:28.087Z,0.40
2018-07-02T22:02:56.283Z,0.40
2018-07-02T22:05:24.538Z,0.40
2018-07-02T22:07:52.596Z,0.40
2018-07-02T22:10:20.740Z,0.40
2018-07-02T22:12:48.903Z,0.40
2018-07-02T22:15:24.075Z,0.40
2018-07-02T22:17:52.231Z,0.40
2018-07-02T22:20:20.130Z,0.40
2018-07-02T22:22:48.293Z,0.40
2018-07-02T22:25:16.445Z,0.40
2018-07-02T22:27:44.648Z,0.40
2018-07-02T22:30:12.906Z,0.40
2018-07-02T22:32:41.043Z,0.40
2018-07-02T22:35:09.263Z,0.40
2018-07-02T22:37:37.415Z,0.40
2018-07-02T22:40:06.023Z,0.40
2018-07-02T22:42:34.159Z,0.40
2018-07-02T22:45:02.336Z,0.40
2018-07-02T22:47:30.475Z,0.40
2018-07-02T22:49:58.618Z,0.40
2018-07-02T22:52:26.762Z,0.40
2018-07-02T22:54:54.921Z,0.40
2018-07-02T22:57:23.407Z,0.40
2018-07-02T22:59:51.570Z,0.40
2018-07-02T23:02:19.710Z,0.40
2018-07-02T23:04:47.874Z,0.40
2018-07-02T23:07:16.107Z,0.40
2018-07-02T23:09:44.290Z,0.40
2018-07-02T23:12:12.450Z,0.40
2018-07-02T23:14:40.611Z,0.40
2018-07-02T23:17:08.772Z,0.40
2018-07-02T23:33:54.812Z,0.40
2018-07-02T23:36:22.995Z,0.40
2018-07-02T23:38:51.139Z,0.40
2018-07-02T23:41:19.279Z,0.40
2018-07-02T23:43:47.456Z,0.40
2018-07-02T23:46:15.653Z,0.40
2018-07-02T23:48:43.823Z,0.40
2018-07-02T23:51:12.011Z,0.40
2018-07-02T23:53:40.168Z,0.40
2018-07-02T23:56:08.284Z,0.40
2018-07-02T23:58:36.973Z,0.40
